Aomori Airport, Japan

3:48 PM JST on August 23, 2014 (GMT +0900)
Aomori | Change Station
CLOSE
Current Station
Airport
Location: Aomori Airport,
Elevation: 659 ft
Nearby Weather Stations

Elev 659 ft 40.73 °N, 140.69 °E | Updated 48 minutes ago

Mostly Cloudy
Mostly Cloudy
77 °F
Feels Like 77 °F
N
17
Wind Variable Wind from SSW

Today
High -- | Low -- °F
--% Chance of Precip.
Yesterday
High -- | Low -- °F
Precip. -- in
4:54 AM 6:24 PM
Waning Crescent, 5% visible
Pressure 29.80 in
Visibility 6.2 miles
Clouds Few 4000 ft
Mostly Cloudy 5000 ft
Dew Point 66 °F
Humidity 69%
Rainfall 0.00 in
Snow Depth Not available.
UV 2 out of 12
Pollen Not available.
Air Quality Not available.
Flu Activity Not available.
METAR RJSA 230600Z 21015KT 9999 FEW040 BKN050 BKN/// 25/19 Q1009

More Conditions Fewer Conditions

Pressure 29.80 in
Visibility 6.2 miles
Clouds Few 4000 ft
Mostly Cloudy 5000 ft
Dew Point 66 °F
Humidity 69%
Rainfall 0.00 in
Snow Depth Not available.
UV 2 out of 12
Pollen Not available.
Air Quality Not available.
Flu Activity Not available.
METAR RJSA 230600Z 21015KT 9999 FEW040 BKN050 BKN/// 25/19 Q1009

More Conditions Fewer Conditions

10-Day Weather Forecast

Almanac

Astronomy

Aug. 23, 2014 Rise Set
Actual Time 4:54 AM JST 6:24 PM JST
Civil Twilight 4:25 AM JST 6:53 PM JST
Nautical Twilight 3:51 AM JST 7:27 PM JST
Astronomical Twilight 3:14 AM JST 8:04 PM JST
Moon 2:36 AM JST 4:46 PM JST
Length of Visible Light 14h 27m
Length of Day
13h 29m
Tomorrow will be 2m 30s shorter.
Waning Crescent, 5% of the Moon is Illuminated
Today
Waning Crescent
Aug 25
New
Sep 2
First Quarter
Sep 8
Full
Sep 15
Last Quarter

Yesterday's Extremes

Country Highs Country Lows

Community

WunderPhotos

Upload Photos

1,746,371 photos uploaded!

WunderBlogs® & News

By Dr. Jeff Masters
Director of Meteorology, Weather Underground
By Kari Strenfel
Meteorologist, Weather Underground
By Christopher C. Burt
Weather Historian, Weather Underground
August 23, 2014
August 23, 2014
August 22, 2014

Nearby

Snow Depth

Not available.

Earthquake Activity

City Distance Mag. Time & Date
No recent earthquake activity has been reported nearby.
Minimum magnitude displayed is 2.5.

Coastal Water Temperatures

Place Temperature
No Stations Reporting

Nearby Weather Stations